Odessa, MN

6:18 AM CDT on September 03, 2015 (GMT -0500)
RAWS | | Change Station
CLOSE
Current Station
Personal Weather Station
Location: Odessa, MN
Elevation: 877 ft
Nearby Weather Stations

Elev 877 ft 45.26 °N, 96.34 °W | Updated 27 minutes ago

Overcast
Overcast
70.0 °F
Feels Like 70.0 °F
N
7.0
Wind Variable Wind from ESE
Gusts 12.0 mph

Today
High -- | Low -- °F
--% Chance of Precip.
Yesterday
High -- | Low -- °F
Precip. -- in
6:49 AM 7:59 PM
Waning Gibbous, 71% visible
Pressure 29.82 in
Visibility 0.8 miles
Clouds Overcast 200 ft
Dew Point 70.0 °F
Humidity 100%
Rainfall in
Snow Depth Not available.
UV 0 out of 12
Pollen 11.20 out of 12
Air Quality Not available.
Flu Activity Not available.
METAR KVVV 031101Z AUTO 13007KT 3/4SM OVC002 21/20 A2982 RMK AO2
Pressure 29.82 in
Visibility 0.8 miles
Clouds Overcast 200 ft
Dew Point 70.0 °F
Humidity 100%
Rainfall in
Snow Depth Not available.
UV 0 out of 12
Pollen 11.20 out of 12
Air Quality Not available.
Flu Activity Not available.
METAR KVVV 031101Z AUTO 13007KT 3/4SM OVC002 21/20 A2982 RMK AO2

10-Day Weather Forecast

×

Almanac

Astronomy

Sep. 03, 2015 Rise Set
Actual Time
Civil Twilight
Nautical Twilight
Astronomical Twilight
Moon
Length of Visible Light
Length of Day
Tomorrow will be .
, % of the Moon is Illuminated

Today's Extremes

State Highs State Lows

Community

WunderPhotos

Upload Photos

1,851,933 photos uploaded!

WunderBlogs® & News

Nearby

Air Quality

  Air Quality AQ Index Pollutant
Not available.

Snow Depth

Station Depth Elevation

Earthquake Activity

City Distance Mag. Time & Date
Minimum magnitude displayed is 2.5.

Coastal Water Temperatures

Place Temperature

Stations

Nearby Weather Stations

Station Location Temp. Windchill Dew Point Humidity Wind Precip. Elev Updated Type